Station Historical Data
Daily Summary for June 9, 2017 Units:  English    Metric   Both
Next Day »
Daily Weekly Monthly Yearly Custom
  High: Low: Average:
Temperature: 60.2 °F 50.3 °F 55.8 °F
Dew Point: 54.9 °F 45.3 °F 51.7 °F
Humidity: 88% 78% 86%
Wind Speed: 16.0mph 0.0mph 0.8mph
Wind Gust: 16.0mph - -
Wind- - SSW
Pressure: 30.00 in 29.91 in -
Precipitation: 0.00 in    
Historical Graphs
 
 
Tabular Data for June 9, 2017
Time Temperature Dew Point Pressure Wind Wind Speed Wind Gust Humidity Rainfall Rate (Hourly) solar Conditions
00:02 55.0 °F 51.5 °F 30.00 in Calm     88% 0.00 in 0.00 W/m2
00:07 55.0 °F 51.5 °F 30.00 in Calm     88% 0.00 in 0.00 W/m2
00:12 54.9 °F 51.4 °F 30.00 in Calm     88% 0.00 in 0.00 W/m2
00:13 54.9 °F 51.4 °F 30.00 in Calm     88% 0.00 in 0.00 W/m2
00:18 54.9 °F 51.4 °F 30.00 in Calm     88% 0.00 in 0.00 W/m2
00:23 54.9 °F 51.4 °F 30.00 in Calm     88% 0.00 in 0.00 W/m2
00:28 54.8 °F 51.3 °F 30.00 in Calm     88% 0.00 in 0.00 W/m2
00:33 54.8 °F 51.3 °F 30.00 in Calm     88% 0.00 in 0.00 W/m2
00:38 54.8 °F 51.3 °F 30.00 in Calm     88% 0.00 in 0.00 W/m2
00:43 54.8 °F 51.3 °F 30.00 in Calm     88% 0.00 in 0.00 W/m2
00:48 54.8 °F 51.3 °F 30.00 in Calm     88% 0.00 in 0.00 W/m2
00:53 54.7 °F 51.2 °F 30.00 in Calm     88% 0.00 in 0.00 W/m2
00:58 54.7 °F 51.2 °F 30.00 in Calm     88% 0.00 in 0.00 W/m2
01:03 54.7 °F 51.2 °F 30.00 in Calm     88% 0.00 in 0.00 W/m2
01:08 54.7 °F 51.2 °F 30.00 in Calm     88% 0.00 in 0.00 W/m2
01:09 54.6 °F 51.1 °F 30.00 in Calm     88% 0.00 in 0.00 W/m2
01:14 54.6 °F 51.1 °F 30.00 in Calm     88% 0.00 in 0.00 W/m2
01:19 54.6 °F 51.1 °F 30.00 in Calm     88% 0.00 in 0.00 W/m2
01:24 54.5 °F 51.0 °F 30.00 in Calm     88% 0.00 in 0.00 W/m2
01:29 54.4 °F 50.9 °F 30.00 in Calm     88% 0.00 in 0.00 W/m2
01:34 54.2 °F 50.7 °F 30.00 in Calm     88% 0.00 in 0.00 W/m2
01:39 54.1 °F 50.6 °F 29.99 in Calm     88% 0.00 in 0.00 W/m2
01:44 54.0 °F 50.5 °F 29.99 in Calm     88% 0.00 in 0.00 W/m2
01:49 53.9 °F 50.4 °F 29.99 in Calm     88% 0.00 in 0.00 W/m2
01:54 53.9 °F 50.4 °F 29.99 in Calm     88% 0.00 in 0.00 W/m2
01:59 53.8 °F 50.3 °F 29.99 in Calm     88% 0.00 in 0.00 W/m2
02:04 53.7 °F 50.2 °F 29.99 in Calm     88% 0.00 in 0.00 W/m2
02:09 53.7 °F 50.2 °F 29.99 in Calm     88% 0.00 in 0.00 W/m2
02:14 53.6 °F 50.1 °F 29.99 in Calm     88% 0.00 in 0.00 W/m2
02:19 53.6 °F 50.1 °F 29.99 in Calm     88% 0.00 in 0.00 W/m2
02:24 53.5 °F 50.0 °F 29.99 in Calm     88% 0.00 in 0.00 W/m2
02:29 53.5 °F 50.0 °F 29.99 in Calm     88% 0.00 in 0.00 W/m2
02:34 53.4 °F 49.9 °F 29.99 in Calm     88% 0.00 in 0.00 W/m2
02:39 53.4 °F 49.9 °F 29.99 in Calm     88% 0.00 in 0.00 W/m2
02:44 53.4 °F 49.9 °F 29.99 in Calm     88% 0.00 in 0.00 W/m2
02:49 53.4 °F 49.9 °F 29.99 in Calm     88% 0.00 in 0.00 W/m2
02:54 53.4 °F 49.9 °F 29.99 in Calm     88% 0.00 in 0.00 W/m2
02:57 53.5 °F 50.0 °F 29.99 in Calm     88% 0.00 in 0.00 W/m2
03:02 53.5 °F 50.0 °F 29.99 in Calm     88% 0.00 in 0.00 W/m2
03:03 53.5 °F 50.0 °F 29.99 in Calm     88% 0.00 in 0.00 W/m2
03:08 53.6 °F 50.1 °F 29.99 in Calm     88% 0.00 in 0.00 W/m2
03:13 53.6 °F 50.1 °F 29.99 in Calm     88% 0.00 in 0.00 W/m2
03:18 53.7 °F 50.2 °F 29.99 in Calm     88% 0.00 in 0.00 W/m2
03:23 53.7 °F 50.2 °F 29.98 in Calm     88% 0.00 in 0.00 W/m2
03:28 53.8 °F 50.3 °F 29.98 in Calm     88% 0.00 in 0.00 W/m2
03:33 53.9 °F 50.4 °F 29.98 in Calm     88% 0.00 in 0.00 W/m2
03:38 53.9 °F 50.4 °F 29.98 in Calm     88% 0.00 in 0.00 W/m2
03:43 54.0 °F 50.5 °F 29.98 in Calm     88% 0.00 in 0.00 W/m2
03:48 54.0 °F 50.5 °F 29.98 in Calm     88% 0.00 in 0.00 W/m2
03:53 54.1 °F 50.6 °F 29.98 in Calm     88% 0.00 in 0.00 W/m2
03:58 54.1 °F 50.6 °F 29.98 in Calm     88% 0.00 in 0.00 W/m2
04:03 54.2 °F 50.7 °F 29.97 in Calm     88% 0.00 in 0.00 W/m2
04:08 54.2 °F 50.7 °F 29.97 in Calm     88% 0.00 in 0.00 W/m2
04:13 54.2 °F 50.7 °F 29.97 in Calm     88% 0.00 in 0.00 W/m2
04:19 54.2 °F 50.7 °F 29.97 in Calm     88% 0.00 in 0.00 W/m2
04:24 54.2 °F 50.7 °F 29.97 in Calm     88% 0.00 in 0.00 W/m2
04:29 54.3 °F 50.8 °F 29.97 in Calm     88% 0.00 in 0.00 W/m2
04:34 54.3 °F 50.8 °F 29.97 in Calm     88% 0.00 in 0.00 W/m2
04:39 54.3 °F 50.8 °F 29.97 in Calm     88% 0.00 in 0.00 W/m2
04:44 54.3 °F 50.8 °F 29.97 in Calm     88% 0.00 in 0.00 W/m2
04:49 54.4 °F 50.9 °F 29.97 in Calm     88% 0.00 in 0.00 W/m2
04:54 54.4 °F 50.9 °F 29.96 in Calm     88% 0.00 in 0.00 W/m2
04:59 54.4 °F 50.9 °F 29.96 in Calm     88% 0.00 in 0.00 W/m2
05:04 54.4 °F 50.9 °F 29.96 in Calm     88% 0.00 in 0.00 W/m2
05:09 54.3 °F 50.8 °F 29.96 in Calm     88% 0.00 in 0.00 W/m2
05:14 54.3 °F 50.8 °F 29.96 in Calm     88% 0.00 in 0.00 W/m2
05:19 54.2 °F 50.7 °F 29.96 in Calm     88% 0.00 in 0.00 W/m2
05:24 54.2 °F 50.7 °F 29.96 in Calm     88% 0.00 in 0.00 W/m2
05:29 54.1 °F 50.6 °F 29.96 in Calm     88% 0.00 in 0.00 W/m2
05:34 54.1 °F 50.6 °F 29.96 in Calm     88% 0.00 in 0.00 W/m2
05:39 54.1 °F 50.6 °F 29.96 in Calm     88% 0.00 in 5.00 W/m2
05:44 54.0 °F 50.5 °F 29.96 in Calm     88% 0.00 in 5.00 W/m2
05:49 54.0 °F 50.5 °F 29.96 in Calm     88% 0.00 in 7.00 W/m2
05:54 54.0 °F 50.5 °F 29.97 in Calm     88% 0.00 in 16.00 W/m2
05:59 54.0 °F 50.5 °F 29.97 in Calm     88% 0.00 in 21.00 W/m2
06:04 54.0 °F 50.5 °F 29.97 in Calm     88% 0.00 in 18.00 W/m2
06:09 54.0 °F 50.5 °F 29.97 in Calm     88% 0.00 in 21.00 W/m2
06:19 54.0 °F 50.5 °F 29.97 in Calm     88% 0.00 in 28.00 W/m2
06:24 54.1 °F 50.6 °F 29.97 in Calm     88% 0.00 in 33.00 W/m2
06:29 54.1 °F 50.6 °F 29.97 in Calm     88% 0.00 in 47.00 W/m2
06:34 54.1 °F 50.6 °F 29.96 in Calm     88% 0.00 in 49.00 W/m2
06:39 54.2 °F 50.7 °F 29.96 in Calm     88% 0.00 in 35.00 W/m2
06:44 54.2 °F 50.7 °F 29.97 in Calm     88% 0.00 in 35.00 W/m2
06:49 54.2 °F 50.7 °F 29.97 in Calm     88% 0.00 in 19.00 W/m2
06:54 54.3 °F 50.8 °F 29.97 in Calm     88% 0.00 in 23.00 W/m2
06:59 54.4 °F 50.9 °F 29.96 in Calm     88% 0.00 in 28.00 W/m2
07:04 54.4 °F 50.9 °F 29.97 in Calm     88% 0.00 in 65.00 W/m2
07:09 54.5 °F 51.0 °F 29.97 in Calm     88% 0.00 in 51.00 W/m2
07:14 54.5 °F 51.0 °F 29.97 in Calm     88% 0.00 in 58.00 W/m2
07:19 54.6 °F 51.1 °F 29.97 in Calm     88% 0.00 in 40.00 W/m2
07:24 54.6 °F 51.1 °F 29.97 in Calm     88% 0.00 in 47.00 W/m2
07:29 54.7 °F 51.2 °F 29.97 in Calm     88% 0.00 in 91.00 W/m2
07:35 54.8 °F 51.3 °F 29.97 in Calm     88% 0.00 in 53.00 W/m2
07:40 54.8 °F 51.3 °F 29.97 in Calm     88% 0.00 in 33.00 W/m2
07:45 54.8 °F 51.3 °F 29.97 in Calm     88% 0.00 in 53.00 W/m2
07:50 54.8 °F 51.3 °F 29.97 in Calm     88% 0.00 in 51.00 W/m2
07:51 54.9 °F 51.4 °F 29.97 in Calm     88% 0.00 in 51.00 W/m2
07:56 54.9 °F 51.4 °F 29.96 in Calm     88% 0.00 in 49.00 W/m2
08:01 54.9 °F 51.4 °F 29.96 in Calm     88% 0.00 in 91.00 W/m2
08:06 54.9 °F 51.4 °F 29.96 in Calm     88% 0.00 in 100.00 W/m2
08:11 54.9 °F 51.4 °F 29.96 in Calm     88% 0.00 in 63.00 W/m2
08:16 55.0 °F 51.5 °F 29.96 in Calm     88% 0.00 in 70.00 W/m2
08:21 55.0 °F 51.5 °F 29.96 in Calm     88% 0.00 in 69.00 W/m2
08:26 55.0 °F 51.5 °F 29.96 in Calm     88% 0.00 in 76.00 W/m2
08:31 55.0 °F 51.5 °F 29.97 in Calm     88% 0.00 in 100.00 W/m2
08:36 55.0 °F 51.5 °F 29.96 in Calm     88% 0.00 in 109.00 W/m2
08:41 55.1 °F 51.6 °F 29.96 in Calm     88% 0.00 in 169.00 W/m2
08:46 55.1 °F 51.6 °F 29.96 in Calm     88% 0.00 in 285.00 W/m2
08:51 55.2 °F 51.7 °F 29.96 in Calm     88% 0.00 in 287.00 W/m2
08:56 55.3 °F 51.8 °F 29.96 in Calm     88% 0.00 in 315.00 W/m2
09:01 55.5 °F 52.0 °F 29.96 in Calm     88% 0.00 in 285.00 W/m2
09:06 55.5 °F 52.0 °F 29.96 in Calm     88% 0.00 in 308.00 W/m2
09:11 55.7 °F 52.2 °F 29.96 in Calm     88% 0.00 in 262.00 W/m2
09:16 55.8 °F 52.3 °F 29.96 in Calm     88% 0.00 in 221.00 W/m2
09:22 56.0 °F 52.5 °F 29.95 in Calm     88% 0.00 in 253.00 W/m2
09:27 56.1 °F 52.6 °F 29.96 in Calm     88% 0.00 in 160.00 W/m2
09:32 56.1 °F 52.6 °F 29.95 in Calm     88% 0.00 in 156.00 W/m2
09:37 56.3 °F 52.8 °F 29.95 in Calm     88% 0.00 in 125.00 W/m2
09:42 56.4 °F 52.9 °F 29.95 in Calm     88% 0.00 in 165.00 W/m2
09:47 56.5 °F 53.0 °F 29.95 in Calm     88% 0.00 in 169.00 W/m2
09:52 56.5 °F 53.0 °F 29.95 in Calm     88% 0.00 in 237.00 W/m2
09:57 56.6 °F 53.1 °F 29.96 in Calm     88% 0.00 in 199.00 W/m2
10:02 56.7 °F 53.2 °F 29.96 in SW 1.0 mph 2.0 mph 88% 0.00 in 118.00 W/m2
10:07 56.7 °F 53.2 °F 29.96 in SSW 1.0 mph 1.0 mph 88% 0.00 in 274.00 W/m2
10:12 56.8 °F 53.0 °F 29.95 in Calm   2.0 mph 87% 0.00 in 450.00 W/m2
10:18 56.8 °F 53.0 °F 29.96 in Calm   2.0 mph 87% 0.00 in 244.00 W/m2
10:23 56.9 °F 53.1 °F 29.96 in Calm     87% 0.00 in 88.00 W/m2
10:28 57.1 °F 53.6 °F 29.96 in Calm   4.0 mph 88% 0.00 in 100.00 W/m2
10:33 57.1 °F 53.3 °F 29.95 in Calm   1.0 mph 87% 0.00 in 364.00 W/m2
10:38 57.1 °F 53.3 °F 29.95 in Calm     87% 0.00 in 466.00 W/m2
10:43 57.3 °F 53.5 °F 29.95 in Calm     87% 0.00 in 276.00 W/m2
10:48 57.3 °F 53.5 °F 29.95 in SW 1.0 mph 3.0 mph 87% 0.00 in 162.00 W/m2
10:53 57.3 °F 53.5 °F 29.95 in Calm     87% 0.00 in 197.00 W/m2
10:58 57.3 °F 53.5 °F 29.95 in SW 1.0 mph 2.0 mph 87% 0.00 in 274.00 W/m2
11:03 57.4 °F 53.6 °F 29.95 in Calm   7.0 mph 87% 0.00 in 267.00 W/m2
11:08 57.5 °F 53.7 °F 29.95 in Calm   1.0 mph 87% 0.00 in 350.00 W/m2
11:13 57.5 °F 53.3 °F 29.95 in Calm     86% 0.00 in 102.00 W/m2
11:18 57.6 °F 53.5 °F 29.95 in Calm     86% 0.00 in 134.00 W/m2
11:23 57.6 °F 53.5 °F 29.95 in SW 8.0 mph 11.0 mph 86% 0.00 in 311.00 W/m2
11:28 57.7 °F 53.9 °F 29.95 in Calm   1.0 mph 87% 0.00 in 251.00 W/m2
11:33 57.7 °F 53.9 °F 29.95 in Calm   1.0 mph 87% 0.00 in 171.00 W/m2
11:38 57.7 °F 53.9 °F 29.95 in Calm     87% 0.00 in 200.00 W/m2
11:43 57.7 °F 53.9 °F 29.95 in Calm   7.0 mph 87% 0.00 in 206.00 W/m2
11:48 57.7 °F 53.9 °F 29.95 in Calm     87% 0.00 in 128.00 W/m2
11:53 57.6 °F 53.8 °F 29.95 in Calm     87% 0.00 in 39.00 W/m2
11:58 57.5 °F 53.7 °F 29.95 in Calm   1.0 mph 87% 0.00 in 54.00 W/m2
12:03 57.4 °F 53.6 °F 29.96 in WSW 1.0 mph 1.0 mph 87% 0.00 in 91.00 W/m2
12:08 57.2 °F 53.4 °F 29.96 in Calm   1.0 mph 87% 0.00 in 69.00 W/m2
12:13 57.0 °F 53.2 °F 29.96 in West 3.0 mph 3.0 mph 87% 0.00 in 223.00 W/m2
12:18 57.0 °F 53.2 °F 29.96 in Calm   1.0 mph 87% 0.00 in 204.00 W/m2
12:23 56.8 °F 53.0 °F 29.96 in West 4.0 mph 14.0 mph 87% 0.00 in 213.00 W/m2
12:28 56.8 °F 53.0 °F 29.95 in Calm   9.0 mph 87% 0.00 in 148.00 W/m2
12:33 56.9 °F 53.1 °F 29.96 in WSW 7.0 mph 11.0 mph 87% 0.00 in 86.00 W/m2
12:38 56.8 °F 53.0 °F 29.96 in WNW 6.0 mph 10.0 mph 87% 0.00 in 91.00 W/m2
12:43 56.8 °F 53.0 °F 29.96 in Calm   1.0 mph 87% 0.00 in 167.00 W/m2
12:48 56.8 °F 53.0 °F 29.96 in Calm   1.0 mph 87% 0.00 in 104.00 W/m2
12:53 56.8 °F 53.0 °F 29.96 in Calm   1.0 mph 87% 0.00 in 132.00 W/m2
12:58 56.8 °F 53.0 °F 29.95 in Calm   1.0 mph 87% 0.00 in 179.00 W/m2
13:03 56.8 °F 53.3 °F 29.95 in Calm   1.0 mph 88% 0.00 in 102.00 W/m2
13:08 56.8 °F 53.3 °F 29.95 in Calm     88% 0.00 in 47.00 W/m2
13:13 56.8 °F 53.3 °F 29.95 in Calm     88% 0.00 in 72.00 W/m2
13:18 56.7 °F 53.2 °F 29.95 in Calm   1.0 mph 88% 0.00 in 77.00 W/m2
13:23 56.7 °F 53.2 °F 29.95 in SSW 1.0 mph 1.0 mph 88% 0.00 in 116.00 W/m2
13:28 56.7 °F 53.2 °F 29.95 in Calm   1.0 mph 88% 0.00 in 163.00 W/m2
13:33 56.8 °F 53.3 °F 29.95 in Calm   1.0 mph 88% 0.00 in 204.00 W/m2
13:38 56.8 °F 53.3 °F 29.95 in SW 7.0 mph 11.0 mph 88% 0.00 in 424.00 W/m2
13:43 56.8 °F 53.3 °F 29.95 in SSW 9.0 mph 13.0 mph 88% 0.00 in 406.00 W/m2
13:48 56.8 °F 53.3 °F 29.95 in Calm   8.0 mph 88% 0.00 in 309.00 W/m2
13:53 56.9 °F 53.4 °F 29.95 in Calm   1.0 mph 88% 0.00 in 290.00 W/m2
13:58 57.1 °F 53.6 °F 29.95 in Calm   5.0 mph 88% 0.00 in 206.00 W/m2
14:03 57.3 °F 53.5 °F 29.95 in Calm   13.0 mph 87% 0.00 in 468.00 W/m2
14:14 57.7 °F 53.9 °F 29.95 in WSW 9.0 mph 10.0 mph 87% 0.00 in 258.00 W/m2
14:19 57.9 °F 53.7 °F 29.94 in WSW 1.0 mph 1.0 mph 86% 0.00 in 243.00 W/m2
14:24 58.1 °F 53.9 °F 29.95 in Calm   11.0 mph 86% 0.00 in 167.00 W/m2
14:29 58.2 °F 54.0 °F 29.95 in Calm   12.0 mph 86% 0.00 in 216.00 W/m2
14:34 58.3 °F 54.1 °F 29.95 in Calm     86% 0.00 in 538.00 W/m2
14:39 58.4 °F 54.5 °F 29.95 in Calm     87% 0.00 in 188.00 W/m2
14:44 58.5 °F 54.7 °F 29.95 in Calm     87% 0.00 in 79.00 W/m2
14:49 58.5 °F 54.3 °F 29.95 in Calm     86% 0.00 in 197.00 W/m2
14:54 58.6 °F 54.4 °F 29.95 in South 4.0 mph 14.0 mph 86% 0.00 in 294.00 W/m2
14:59 58.6 °F 54.4 °F 29.95 in Calm   10.0 mph 86% 0.00 in 279.00 W/m2
15:04 58.7 °F 54.2 °F 29.95 in Calm   1.0 mph 85% 0.00 in 223.00 W/m2
15:09 58.8 °F 54.3 °F 29.95 in Calm   1.0 mph 85% 0.00 in 294.00 W/m2
15:19 58.9 °F 54.4 °F 29.94 in Calm   1.0 mph 85% 0.00 in 276.00 W/m2
15:24 58.9 °F 54.4 °F 29.94 in Calm   1.0 mph 85% 0.00 in 171.00 W/m2
15:29 58.8 °F 54.3 °F 29.94 in Calm   1.0 mph 85% 0.00 in 156.00 W/m2
15:34 58.8 °F 54.0 °F 29.94 in Calm   1.0 mph 84% 0.00 in 265.00 W/m2
15:39 58.7 °F 53.9 °F 29.94 in Calm   1.0 mph 84% 0.00 in 132.00 W/m2
15:44 58.7 °F 53.9 °F 29.94 in Calm   1.0 mph 84% 0.00 in 134.00 W/m2
15:49 58.8 °F 54.3 °F 29.93 in Calm     85% 0.00 in 304.00 W/m2
15:54 58.8 °F 54.3 °F 29.93 in Calm     85% 0.00 in 118.00 W/m2
15:59 58.8 °F 54.3 °F 29.93 in Calm   6.0 mph 85% 0.00 in 443.00 W/m2
16:04 58.8 °F 54.3 °F 29.93 in Calm   1.0 mph 85% 0.00 in 97.00 W/m2
16:09 58.8 °F 54.3 °F 29.93 in Calm   1.0 mph 85% 0.00 in 218.00 W/m2
16:14 58.8 °F 54.3 °F 29.93 in Calm   1.0 mph 85% 0.00 in 241.00 W/m2
16:19 58.9 °F 54.4 °F 29.93 in Calm   10.0 mph 85% 0.00 in 153.00 W/m2
16:24 58.9 °F 54.4 °F 29.93 in Calm   1.0 mph 85% 0.00 in 165.00 W/m2
16:29 59.0 °F 54.5 °F 29.93 in Calm   1.0 mph 85% 0.00 in 294.00 W/m2
16:34 59.1 °F 54.6 °F 29.92 in Calm   1.0 mph 85% 0.00 in 316.00 W/m2
16:39 59.2 °F 54.7 °F 29.92 in SSW 1.0 mph 1.0 mph 85% 0.00 in 258.00 W/m2
16:44 59.4 °F 54.9 °F 29.92 in Calm   1.0 mph 85% 0.00 in 229.00 W/m2
16:49 59.5 °F 54.7 °F 29.92 in Calm   1.0 mph 84% 0.00 in 174.00 W/m2
16:54 59.5 °F 54.7 °F 29.92 in SSW 9.0 mph 10.0 mph 84% 0.00 in 156.00 W/m2
16:59 59.6 °F 54.4 °F 29.92 in Calm   1.0 mph 83% 0.00 in 350.00 W/m2
17:04 59.7 °F 54.9 °F 29.92 in SSW 5.0 mph 11.0 mph 84% 0.00 in 315.00 W/m2
17:09 59.7 °F 54.5 °F 29.92 in Calm   1.0 mph 83% 0.00 in 682.00 W/m2
17:14 59.7 °F 54.5 °F 29.92 in SSW 7.0 mph 13.0 mph 83% 0.00 in 199.00 W/m2
17:19 59.8 °F 54.6 °F 29.92 in Calm   10.0 mph 83% 0.00 in 302.00 W/m2
17:24 59.9 °F 54.4 °F 29.92 in SW 1.0 mph 1.0 mph 82% 0.00 in 322.00 W/m2
17:29 60.0 °F 54.8 °F 29.92 in SSW 11.0 mph 13.0 mph 83% 0.00 in 645.00 W/m2
17:34 60.1 °F 54.6 °F 29.92 in South 16.0 mph 16.0 mph 82% 0.00 in 178.00 W/m2
17:39 60.1 °F 54.6 °F 29.92 in Calm   13.0 mph 82% 0.00 in 211.00 W/m2
17:44 60.2 °F 54.7 °F 29.92 in Calm   8.0 mph 82% 0.00 in 153.00 W/m2
17:49 60.1 °F 54.6 °F 29.91 in Calm   13.0 mph 82% 0.00 in 114.00 W/m2
17:54 60.0 °F 54.5 °F 29.92 in Calm   1.0 mph 82% 0.00 in 204.00 W/m2
17:59 59.9 °F 54.4 °F 29.91 in Calm   1.0 mph 82% 0.00 in 155.00 W/m2
18:04 59.8 °F 54.3 °F 29.91 in Calm   12.0 mph 82% 0.00 in 144.00 W/m2
18:09 59.8 °F 54.3 °F 29.91 in Calm   8.0 mph 82% 0.00 in 262.00 W/m2
18:15 59.8 °F 54.6 °F 29.91 in SSE 4.0 mph 11.0 mph 83% 0.00 in 100.00 W/m2
18:20 59.8 °F 54.6 °F 29.91 in Calm   10.0 mph 83% 0.00 in 160.00 W/m2
18:25 59.7 °F 54.5 °F 29.91 in Calm   11.0 mph 83% 0.00 in 74.00 W/m2
18:30 59.6 °F 54.4 °F 29.91 in Calm   11.0 mph 83% 0.00 in 46.00 W/m2
18:35 59.6 °F 54.4 °F 29.91 in Calm   10.0 mph 83% 0.00 in 65.00 W/m2
18:40 59.6 °F 54.4 °F 29.91 in Calm   1.0 mph 83% 0.00 in 113.00 W/m2
18:45 59.5 °F 54.3 °F 29.91 in Calm   11.0 mph 83% 0.00 in 70.00 W/m2
18:50 59.4 °F 54.2 °F 29.91 in Calm   1.0 mph 83% 0.00 in 63.00 W/m2
18:55 59.3 °F 54.2 °F 29.91 in South 9.0 mph 10.0 mph 83% 0.00 in 39.00 W/m2
19:00 59.2 °F 54.0 °F 29.91 in Calm   15.0 mph 83% 0.00 in 44.00 W/m2
19:05 59.1 °F 54.0 °F 29.91 in Calm   1.0 mph 83% 0.00 in 44.00 W/m2
19:10 59.0 °F 53.8 °F 29.91 in South 6.0 mph 13.0 mph 83% 0.00 in 51.00 W/m2
19:15 58.8 °F 53.3 °F 29.91 in Calm   9.0 mph 82% 0.00 in 113.00 W/m2
19:20 58.7 °F 53.2 °F 29.91 in Calm   11.0 mph 82% 0.00 in 58.00 W/m2
19:25 58.7 °F 53.2 °F 29.91 in Calm   1.0 mph 82% 0.00 in 76.00 W/m2
19:30 58.7 °F 53.6 °F 29.91 in Calm   1.0 mph 83% 0.00 in 77.00 W/m2
19:35 58.6 °F 53.5 °F 29.91 in Calm   10.0 mph 83% 0.00 in 49.00 W/m2
19:40 58.5 °F 53.4 °F 29.91 in Calm     83% 0.00 in 46.00 W/m2
19:45 58.4 °F 53.3 °F 29.92 in Calm   1.0 mph 83% 0.00 in 46.00 W/m2
19:50 58.4 °F 53.6 °F 29.92 in Calm     84% 0.00 in 56.00 W/m2
19:51 58.4 °F 53.6 °F 29.92 in Calm     84% 0.00 in 56.00 W/m2
19:56 58.2 °F 53.4 °F 29.92 in Calm     84% 0.00 in 40.00 W/m2
20:01 58.0 °F 52.5 °F 29.92 in Calm   1.0 mph 82% 0.00 in 25.00 W/m2
20:06 57.8 °F 52.0 °F 29.92 in Calm     81% 0.00 in 19.00 W/m2
20:11 57.6 °F 51.5 °F 29.92 in Calm     80% 0.00 in 21.00 W/m2
20:16 57.5 °F 51.7 °F 29.92 in Calm     81% 0.00 in 12.00 W/m2
20:21 57.3 °F 51.2 °F 29.92 in Calm   1.0 mph 80% 0.00 in 12.00 W/m2
20:26 57.1 °F 51.0 °F 29.93 in SW 6.0 mph 8.0 mph 80% 0.00 in 7.00 W/m2
20:31 56.8 °F 50.0 °F 29.93 in SSW 5.0 mph 9.0 mph 78% 0.00 in 5.00 W/m2
20:36 56.5 °F 50.1 °F 29.93 in Calm     79% 0.00 in 0.00 W/m2
20:41 56.2 °F 49.4 °F 29.93 in Calm     78% 0.00 in 0.00 W/m2
20:46 55.8 °F 49.4 °F 29.93 in Calm     79% 0.00 in 0.00 W/m2
20:51 55.5 °F 49.4 °F 29.93 in SSW 6.0 mph 6.0 mph 80% 0.00 in 0.00 W/m2
20:56 55.1 °F 49.0 °F 29.93 in Calm     80% 0.00 in 0.00 W/m2
21:01 54.9 °F 49.2 °F 29.93 in Calm   1.0 mph 81% 0.00 in 0.00 W/m2
21:06 54.6 °F 48.9 °F 29.93 in Calm     81% 0.00 in 0.00 W/m2
21:11 54.4 °F 48.7 °F 29.93 in SSE 11.0 mph 12.0 mph 81% 0.00 in 0.00 W/m2
21:16 54.2 °F 48.5 °F 29.93 in Calm     81% 0.00 in 0.00 W/m2
21:21 54.0 °F 48.3 °F 29.93 in South 1.0 mph 6.0 mph 81% 0.00 in 0.00 W/m2
21:26 53.9 °F 47.9 °F 29.93 in Calm   1.0 mph 80% 0.00 in 0.00 W/m2
21:31 53.7 °F 48.0 °F 29.93 in South 9.0 mph 9.0 mph 81% 0.00 in 0.00 W/m2
21:36 53.6 °F 47.9 °F 29.93 in Calm   1.0 mph 81% 0.00 in 0.00 W/m2
21:41 53.4 °F 47.7 °F 29.93 in South 6.0 mph 7.0 mph 81% 0.00 in 0.00 W/m2
21:46 53.3 °F 47.6 °F 29.93 in SSE 5.0 mph 5.0 mph 81% 0.00 in 0.00 W/m2
21:51 53.1 °F 47.4 °F 29.93 in SSE 4.0 mph 5.0 mph 81% 0.00 in 0.00 W/m2
21:56 53.0 °F 47.7 °F 29.93 in South 6.0 mph 8.0 mph 82% 0.00 in 0.00 W/m2
22:01 52.9 °F 47.6 °F 29.94 in South 8.0 mph 9.0 mph 82% 0.00 in 0.00 W/m2
22:06 52.7 °F 47.4 °F 29.94 in South 8.0 mph 8.0 mph 82% 0.00 in 0.00 W/m2
22:11 52.5 °F 47.2 °F 29.94 in Calm   5.0 mph 82% 0.00 in 0.00 W/m2
22:16 52.4 °F 47.1 °F 29.94 in Calm   3.0 mph 82% 0.00 in 0.00 W/m2
22:21 52.3 °F 47.0 °F 29.94 in South 2.0 mph 5.0 mph 82% 0.00 in 0.00 W/m2
22:26 52.1 °F 46.8 °F 29.94 in South 4.0 mph 7.0 mph 82% 0.00 in 0.00 W/m2
22:31 52.0 °F 46.7 °F 29.94 in Calm     82% 0.00 in 0.00 W/m2
22:36 51.9 °F 46.9 °F 29.94 in SSE 5.0 mph 8.0 mph 83% 0.00 in 0.00 W/m2
22:41 51.7 °F 46.7 °F 29.95 in South 4.0 mph 6.0 mph 83% 0.00 in 0.00 W/m2
22:46 51.6 °F 46.6 °F 29.95 in SSE 7.0 mph 8.0 mph 83% 0.00 in 0.00 W/m2
22:51 51.5 °F 46.5 °F 29.94 in SSE 6.0 mph 10.0 mph 83% 0.00 in 0.00 W/m2
22:56 51.4 °F 46.4 °F 29.95 in Calm     83% 0.00 in 0.00 W/m2
23:01 51.3 °F 46.3 °F 29.95 in Calm   1.0 mph 83% 0.00 in 0.00 W/m2
23:06 51.2 °F 46.2 °F 29.95 in Calm   1.0 mph 83% 0.00 in 0.00 W/m2
23:11 51.2 °F 46.5 °F 29.95 in Calm   1.0 mph 84% 0.00 in 0.00 W/m2
23:16 51.2 °F 46.5 °F 29.95 in Calm     84% 0.00 in 0.00 W/m2
23:21 51.1 °F 46.4 °F 29.95 in Calm   1.0 mph 84% 0.00 in 0.00 W/m2
23:26 50.9 °F 45.9 °F 29.94 in Calm     83% 0.00 in 0.00 W/m2
23:31 50.8 °F 45.8 °F 29.94 in South 2.0 mph 7.0 mph 83% 0.00 in 0.00 W/m2
23:36 50.8 °F 45.8 °F 29.95 in Calm   1.0 mph 83% 0.00 in 0.00 W/m2
23:41 50.6 °F 45.6 °F 29.95 in Calm   1.0 mph 83% 0.00 in 0.00 W/m2
23:46 50.5 °F 45.5 °F 29.95 in Calm     83% 0.00 in 0.00 W/m2
23:51 50.4 °F 45.4 °F 29.95 in Calm   1.0 mph 83% 0.00 in 0.00 W/m2
23:56 50.3 °F 45.3 °F 29.94 in Calm   1.0 mph 83% 0.00 in 0.00 W/m2
Foresthill Weather
 WU-history PHP script courtesy of   Juneau County Weather.
powered by Cumulus v1.9.3 (1059)
Ambient Weather VWS v14.00
Top Contact Website Map Copyright © 2007 - 2018 Foresthillweather.com Never base important decisions on this or any weather information obtained from the Internet